Time;durP1;ratioP1;P1;durP2;ratioP2;P2;SDS_P1;SDS_P2;PMS_P1;PMS_P2;Temp;Humidity;BMP_temperature;BMP_pressure;BME280_temperature;BME280_humidity;BME280_pressure;Samples;Min_cycle;Max_cycle;Signal;HPM_P1;HPM_P2
2023/05/11 00:02:13;;;;;;;1.13;0.60;;;;;;;;;;5025864;28;20508;-83
2023/05/11 00:04:39;;;;;;;1.08;0.57;;;;;;;;;;5030148;28;20048;-83
2023/05/11 00:07:04;;;;;;;0.50;0.45;;;;;;;;;;5033031;28;20026;-83
2023/05/11 00:09:30;;;;;;;0.50;0.50;;;;;;;;;;4998972;28;20577;-82
2023/05/11 00:11:56;;;;;;;1.00;0.55;;;;;;;;;;4999512;28;20038;-83
2023/05/11 00:14:22;;;;;;;0.60;0.50;;;;;;;;;;5001230;28;20041;-83
2023/05/11 00:16:47;;;;;;;0.82;0.60;;;;;;;;;;5004586;28;20044;-83
2023/05/11 00:19:13;;;;;;;1.05;0.40;;;;;;;;;;5008251;28;20042;-83
2023/05/11 00:21:38;;;;;;;0.63;0.57;;;;;;;;;;5010855;28;20037;-83
2023/05/11 00:24:04;;;;;;;0.93;0.50;;;;;;;;;;5013810;28;20089;-83
2023/05/11 00:26:29;;;;;;;3.08;0.80;;;;;;;;;;5017116;28;20030;-83
2023/05/11 00:28:55;;;;;;;0.65;0.60;;;;;;;;;;5019378;28;20038;-83
2023/05/11 00:31:20;;;;;;;0.40;0.40;;;;;;;;;;5031190;28;20208;-83
2023/05/11 00:33:46;;;;;;;0.88;0.50;;;;;;;;;;5031172;28;20030;-83
2023/05/11 00:36:11;;;;;;;0.80;0.60;;;;;;;;;;5010917;28;20819;-83
2023/05/11 00:38:40;;;;;;;1.23;0.50;;;;;;;;;;5031146;28;20025;-83
2023/05/11 00:41:09;;;;;;;0.93;0.70;;;;;;;;;;5024460;28;20029;-83
2023/05/11 00:43:34;;;;;;;0.93;0.80;;;;;;;;;;5030154;28;20407;-83
2023/05/11 00:46:02;;;;;;;3.08;0.40;;;;;;;;;;5019828;28;20037;-83
2023/05/11 00:48:27;;;;;;;1.63;0.68;;;;;;;;;;5035795;28;20044;-83
2023/05/11 00:50:53;;;;;;;1.90;0.60;;;;;;;;;;5026147;28;20116;-83
2023/05/11 00:53:19;;;;;;;2.65;0.52;;;;;;;;;;5024033;28;20120;-83
2023/05/11 00:55:45;;;;;;;0.57;0.50;;;;;;;;;;5012679;28;20034;-83
2023/05/11 00:58:10;;;;;;;0.57;0.57;;;;;;;;;;5015343;28;20488;-83
2023/05/11 01:00:36;;;;;;;1.55;0.40;;;;;;;;;;5016662;28;20042;-83
2023/05/11 01:03:02;;;;;;;0.57;0.40;;;;;;;;;;5032111;28;20402;-83
2023/05/11 01:06:06;;;;;;;0.82;0.50;;;;;;;;;;5023829;28;20034;-83
2023/05/11 01:08:32;;;;;;;;;;;;;;;;;;5008332;28;20045;-83
2023/05/11 01:11:03;;;;;;;0.45;0.45;;;;;;;;;;5030271;28;20294;-83
2023/05/11 01:13:38;;;;;;;0.60;0.55;;;;;;;;;;5023614;28;20129;-82
2023/05/11 01:16:11;;;;;;;0.65;0.50;;;;;;;;;;5015003;28;20038;-83
2023/05/11 01:18:42;;;;;;;1.95;0.47;;;;;;;;;;5014074;28;20030;-83
2023/05/11 01:21:15;;;;;;;1.27;0.50;;;;;;;;;;5021628;28;20038;-83
2023/05/11 01:24:20;;;;;;;0.70;0.40;;;;;;;;;;5023622;28;20037;-83
2023/05/11 01:27:07;;;;;;;0.98;0.40;;;;;;;;;;5005341;28;20068;-83
2023/05/11 01:29:42;;;;;;;0.38;0.28;;;;;;;;;;5029171;28;20061;-83
2023/05/11 01:32:18;;;;;;;1.48;0.30;;;;;;;;;;4996143;28;20077;-83
2023/05/11 01:34:45;;;;;;;0.70;0.30;;;;;;;;;;5015360;28;20044;-83
2023/05/11 01:37:17;;;;;;;0.38;0.32;;;;;;;;;;5029914;28;20038;-83
2023/05/11 01:39:56;;;;;;;0.30;0.30;;;;;;;;;;5024819;28;20041;-83
2023/05/11 01:42:29;;;;;;;1.20;0.50;;;;;;;;;;5023039;28;20034;-83
2023/05/11 01:44:57;;;;;;;1.30;0.40;;;;;;;;;;5021113;28;20026;-83
2023/05/11 01:47:25;;;;;;;0.98;0.40;;;;;;;;;;5012537;28;20088;-82
2023/05/11 01:49:52;;;;;;;0.80;0.50;;;;;;;;;;5015045;28;20025;-82
2023/05/11 01:52:20;;;;;;;0.40;0.40;;;;;;;;;;5018603;28;20476;-83
2023/05/11 01:54:47;;;;;;;0.90;0.50;;;;;;;;;;5024391;28;20042;-83
2023/05/11 01:57:15;;;;;;;0.40;0.40;;;;;;;;;;5028216;28;20032;-82
2023/05/11 01:59:42;;;;;;;0.32;0.32;;;;;;;;;;5011437;28;20030;-82
2023/05/11 02:02:09;;;;;;;1.10;0.70;;;;;;;;;;5017586;28;20032;-82
2023/05/11 02:04:37;;;;;;;6.45;0.60;;;;;;;;;;5028243;28;20033;-82
2023/05/11 02:07:04;;;;;;;0.52;0.50;;;;;;;;;;5023853;28;20038;-82
2023/05/11 02:09:32;;;;;;;0.20;0.20;;;;;;;;;;5027558;28;20029;-82
2023/05/11 02:11:59;;;;;;;0.68;0.30;;;;;;;;;;5013512;28;20648;-82
2023/05/11 02:14:28;;;;;;;1.05;0.55;;;;;;;;;;5016885;28;20037;-82
2023/05/11 02:16:55;;;;;;;0.45;0.40;;;;;;;;;;5018740;28;20065;-82
2023/05/11 02:19:20;;;;;;;1.42;0.40;;;;;;;;;;5022813;28;20542;-82
2023/05/11 02:21:47;;;;;;;2.05;0.50;;;;;;;;;;5028159;28;20112;-82
2023/05/11 02:24:14;;;;;;;0.90;0.40;;;;;;;;;;5000321;28;20064;-82
2023/05/11 02:26:40;;;;;;;0.30;0.30;;;;;;;;;;5027845;28;20041;-82
2023/05/11 02:29:06;;;;;;;2.40;0.45;;;;;;;;;;5028053;28;20083;-83
2023/05/11 02:31:39;;;;;;;0.40;0.30;;;;;;;;;;5023281;28;20034;-83
2023/05/11 02:34:19;;;;;;;3.67;0.50;;;;;;;;;;5027686;28;20033;-83
2023/05/11 02:36:48;;;;;;;0.75;0.57;;;;;;;;;;5021838;28;20050;-83
2023/05/11 02:39:22;;;;;;;0.57;0.40;;;;;;;;;;5014499;28;20407;-83
2023/05/11 02:41:55;;;;;;;0.95;0.57;;;;;;;;;;5020345;28;20037;-83
2023/05/11 02:44:23;;;;;;;0.88;0.40;;;;;;;;;;5022629;28;20033;-83
2023/05/11 02:46:53;;;;;;;1.98;0.45;;;;;;;;;;5026176;28;20128;-83
2023/05/11 02:49:22;;;;;;;0.40;0.40;;;;;;;;;;5009245;28;20065;-83
2023/05/11 02:51:49;;;;;;;0.30;0.30;;;;;;;;;;5032125;28;20514;-83
2023/05/11 02:54:17;;;;;;;0.98;0.32;;;;;;;;;;5020763;28;20050;-83
2023/05/11 02:56:47;;;;;;;0.60;0.40;;;;;;;;;;5032372;28;20056;-83
2023/05/11 02:59:14;;;;;;;0.43;0.43;;;;;;;;;;5021081;28;20582;-83
2023/05/11 03:01:39;;;;;;;1.60;1.17;;;;;;;;;;5024934;28;20654;-83
2023/05/11 03:04:05;;;;;;;4.40;2.13;;;;;;;;;;5009790;28;20104;-83
2023/05/11 03:06:32;;;;;;;6.90;3.05;;;;;;;;;;5033969;28;20038;-83
2023/05/11 03:09:00;;;;;;;5.13;2.60;;;;;;;;;;5033004;28;20037;-83
2023/05/11 03:11:26;;;;;;;3.63;1.60;;;;;;;;;;5017877;28;20053;-83
2023/05/11 03:13:52;;;;;;;1.90;1.15;;;;;;;;;;5031924;28;20063;-83
2023/05/11 03:16:19;;;;;;;1.58;1.05;;;;;;;;;;5023191;28;20104;-83
2023/05/11 03:18:47;;;;;;;1.80;1.00;;;;;;;;;;5024283;28;20064;-83
2023/05/11 03:21:19;;;;;;;1.52;1.00;;;;;;;;;;5041523;28;20136;-83
2023/05/11 03:23:46;;;;;;;3.33;0.80;;;;;;;;;;5014290;28;20029;-83
2023/05/11 03:26:17;;;;;;;2.20;0.60;;;;;;;;;;5020371;28;20567;-83
2023/05/11 03:28:44;;;;;;;1.88;1.15;;;;;;;;;;5016614;28;20495;-83
2023/05/11 03:31:10;;;;;;;0.40;0.40;;;;;;;;;;5020133;28;20091;-83
2023/05/11 03:33:36;;;;;;;0.57;0.40;;;;;;;;;;5021380;28;20031;-83
2023/05/11 03:36:04;;;;;;;0.40;0.40;;;;;;;;;;5033504;28;20030;-83
2023/05/11 03:38:34;;;;;;;1.70;0.90;;;;;;;;;;5028652;28;20033;-83
2023/05/11 03:41:00;;;;;;;2.95;1.30;;;;;;;;;;5031432;28;20038;-83
2023/05/11 03:43:31;;;;;;;2.22;1.67;;;;;;;;;;5012459;28;20714;-83
2023/05/11 03:45:57;;;;;;;3.70;2.25;;;;;;;;;;5016920;28;20034;-83
2023/05/11 03:48:24;;;;;;;2.65;1.63;;;;;;;;;;5020646;28;20037;-83
2023/05/11 03:50:51;;;;;;;1.83;0.90;;;;;;;;;;5020487;28;20083;-82
2023/05/11 03:53:17;;;;;;;1.83;1.05;;;;;;;;;;5028183;28;20080;-83
2023/05/11 03:55:42;;;;;;;1.02;0.77;;;;;;;;;;5028956;28;20037;-83
2023/05/11 03:58:09;;;;;;;0.85;0.70;;;;;;;;;;5042614;28;20047;-83
2023/05/11 04:00:41;;;;;;;0.70;0.60;;;;;;;;;;5017732;28;20503;-83
2023/05/11 04:03:08;;;;;;;1.00;0.90;;;;;;;;;;5018758;28;20511;-83
2023/05/11 04:05:33;;;;;;;2.05;0.80;;;;;;;;;;5022908;28;20034;-83
2023/05/11 04:08:03;;;;;;;0.85;0.80;;;;;;;;;;5023961;28;20499;-83
2023/05/11 04:10:29;;;;;;;0.77;0.60;;;;;;;;;;5005120;28;20532;-82
2023/05/11 04:12:55;;;;;;;3.30;0.43;;;;;;;;;;5029583;28;20033;-82
2023/05/11 04:15:21;;;;;;;2.58;0.47;;;;;;;;;;5025714;28;20089;-83
2023/05/11 04:17:47;;;;;;;0.45;0.45;;;;;;;;;;5015687;28;20034;-83
2023/05/11 04:20:12;;;;;;;0.38;0.38;;;;;;;;;;5017982;28;20049;-83
2023/05/11 04:22:38;;;;;;;0.70;0.30;;;;;;;;;;5020737;28;20095;-83
2023/05/11 04:25:04;;;;;;;0.32;0.30;;;;;;;;;;5025717;28;20041;-83
2023/05/11 04:27:33;;;;;;;0.30;0.30;;;;;;;;;;5026348;28;20133;-82
2023/05/11 04:29:59;;;;;;;0.60;0.60;;;;;;;;;;5010774;28;20045;-83
2023/05/11 04:32:28;;;;;;;0.85;0.60;;;;;;;;;;5020593;28;20041;-83
2023/05/11 04:34:53;;;;;;;2.05;0.70;;;;;;;;;;5030218;28;20033;-83
2023/05/11 04:37:21;;;;;;;1.25;0.50;;;;;;;;;;5029312;28;20184;-83
2023/05/11 04:39:47;;;;;;;0.65;0.50;;;;;;;;;;5021154;28;20121;-83
2023/05/11 04:42:12;;;;;;;0.50;0.50;;;;;;;;;;5031581;28;20122;-83
2023/05/11 04:44:39;;;;;;;0.50;0.50;;;;;;;;;;5027131;28;20422;-83
2023/05/11 04:47:05;;;;;;;3.22;0.70;;;;;;;;;;5030475;28;20112;-83
2023/05/11 04:49:31;;;;;;;1.20;0.63;;;;;;;;;;5018370;28;20656;-82
2023/05/11 04:51:56;;;;;;;0.73;0.50;;;;;;;;;;5030665;28;20061;-83
2023/05/11 04:54:22;;;;;;;0.20;0.20;;;;;;;;;;5030681;28;20057;-83
2023/05/11 04:56:48;;;;;;;0.70;0.30;;;;;;;;;;5022066;28;20044;-83
2023/05/11 04:59:14;;;;;;;0.57;0.30;;;;;;;;;;5020677;28;20083;-83
2023/05/11 05:01:39;;;;;;;1.35;0.32;;;;;;;;;;5028569;28;20026;-83
2023/05/11 05:04:05;;;;;;;0.30;0.30;;;;;;;;;;5032187;28;20112;-82
2023/05/11 05:06:31;;;;;;;0.65;0.40;;;;;;;;;;5014432;28;20040;-83
2023/05/11 05:08:56;;;;;;;0.30;0.30;;;;;;;;;;5029798;28;20037;-83
2023/05/11 05:11:23;;;;;;;0.65;0.60;;;;;;;;;;5030057;28;20430;-82
2023/05/11 05:13:49;;;;;;;1.33;0.57;;;;;;;;;;5022993;28;20108;-82
2023/05/11 05:16:14;;;;;;;2.70;0.70;;;;;;;;;;5026152;28;20474;-83
2023/05/11 05:18:40;;;;;;;0.52;0.52;;;;;;;;;;5029149;28;20103;-83
2023/05/11 05:21:05;;;;;;;0.68;0.68;;;;;;;;;;5025014;28;20026;-83
2023/05/11 05:23:31;;;;;;;0.50;0.50;;;;;;;;;;5014487;28;20033;-83
2023/05/11 05:25:56;;;;;;;0.80;0.70;;;;;;;;;;5029550;28;20039;-83
2023/05/11 05:28:22;;;;;;;2.92;1.80;;;;;;;;;;5030056;28;20117;-83
2023/05/11 05:30:47;;;;;;;3.72;2.10;;;;;;;;;;5023168;28;20450;-83
2023/05/11 05:33:14;;;;;;;4.25;2.70;;;;;;;;;;5025341;28;20049;-83
2023/05/11 05:35:39;;;;;;;2.13;1.63;;;;;;;;;;5029844;28;20037;-83
2023/05/11 05:38:05;;;;;;;2.70;1.30;;;;;;;;;;5020641;28;20041;-83
2023/05/11 05:40:31;;;;;;;1.75;1.00;;;;;;;;;;5028880;28;20037;-82
2023/05/11 05:42:56;;;;;;;3.38;0.60;;;;;;;;;;5017041;28;20500;-83
2023/05/11 05:45:23;;;;;;;2.38;0.52;;;;;;;;;;5020355;28;20567;-82
2023/05/11 05:47:50;;;;;;;0.80;0.40;;;;;;;;;;5021287;28;20029;-83
2023/05/11 05:50:16;;;;;;;1.52;0.70;;;;;;;;;;5026443;28;20052;-83
2023/05/11 05:52:42;;;;;;;0.63;0.50;;;;;;;;;;5029992;28;20117;-82
2023/05/11 05:55:08;;;;;;;0.85;0.52;;;;;;;;;;5017179;28;20125;-82
2023/05/11 05:57:34;;;;;;;0.60;0.50;;;;;;;;;;5028741;28;20129;-82
2023/05/11 06:00:00;;;;;;;0.50;0.50;;;;;;;;;;5014871;28;20061;-83
2023/05/11 06:02:26;;;;;;;0.40;0.40;;;;;;;;;;5021047;28;20116;-83
2023/05/11 06:04:52;;;;;;;2.10;0.90;;;;;;;;;;5029676;28;20101;-82
2023/05/11 06:07:18;;;;;;;0.70;0.70;;;;;;;;;;5026932;28;20121;-82
2023/05/11 06:09:44;;;;;;;1.50;0.80;;;;;;;;;;5029762;28;20124;-83
2023/05/11 06:12:09;;;;;;;1.58;0.88;;;;;;;;;;4978731;28;20041;-82
2023/05/11 06:14:40;;;;;;;1.50;0.90;;;;;;;;;;5028339;28;20064;-82
2023/05/11 06:17:06;;;;;;;2.17;0.70;;;;;;;;;;5030920;28;20044;-82
2023/05/11 06:19:31;;;;;;;0.90;0.45;;;;;;;;;;5025035;28;20049;-83
2023/05/11 06:21:57;;;;;;;0.93;0.70;;;;;;;;;;5025801;28;20104;-83
2023/05/11 06:24:23;;;;;;;0.50;0.50;;;;;;;;;;5011541;28;20044;-83
2023/05/11 06:26:49;;;;;;;0.70;0.30;;;;;;;;;;5025571;28;20049;-83
2023/05/11 06:29:15;;;;;;;0.40;0.40;;;;;;;;;;5028504;28;20569;-82
2023/05/11 06:31:42;;;;;;;1.67;1.10;;;;;;;;;;5028704;28;20046;-83
2023/05/11 06:34:08;;;;;;;2.05;1.15;;;;;;;;;;5020630;28;20092;-82
2023/05/11 06:36:34;;;;;;;0.75;0.70;;;;;;;;;;5022952;28;20449;-82
2023/05/11 06:39:00;;;;;;;0.50;0.50;;;;;;;;;;5025661;28;20491;-82
2023/05/11 06:41:26;;;;;;;0.40;0.30;;;;;;;;;;5029151;28;20558;-82
2023/05/11 06:43:51;;;;;;;3.42;2.17;;;;;;;;;;5021368;28;20037;-83
2023/05/11 06:46:25;;;;;;;3.53;1.55;;;;;;;;;;5028879;28;20395;-82
2023/05/11 06:48:52;;;;;;;1.83;1.17;;;;;;;;;;5018262;28;20545;-83
2023/05/11 06:51:17;;;;;;;2.65;0.60;;;;;;;;;;5020902;28;20029;-83
2023/05/11 06:53:43;;;;;;;1.20;1.10;;;;;;;;;;5023680;28;20048;-83
2023/05/11 06:56:09;;;;;;;0.90;0.43;;;;;;;;;;5028349;28;20100;-83
2023/05/11 06:58:34;;;;;;;1.20;0.30;;;;;;;;;;5029795;28;20041;-83
2023/05/11 07:01:01;;;;;;;0.50;0.50;;;;;;;;;;5015185;28;20080;-83
2023/05/11 07:03:26;;;;;;;0.30;0.30;;;;;;;;;;5029515;28;20034;-83
2023/05/11 07:05:52;;;;;;;0.50;0.50;;;;;;;;;;5020266;28;20034;-82
2023/05/11 07:08:17;;;;;;;1.30;1.02;;;;;;;;;;5023722;28;20530;-83
2023/05/11 07:10:43;;;;;;;0.73;0.65;;;;;;;;;;5023839;28;20038;-83
2023/05/11 07:13:08;;;;;;;0.45;0.45;;;;;;;;;;5027129;28;20072;-82
2023/05/11 07:15:33;;;;;;;0.52;0.50;;;;;;;;;;5036676;28;20138;-83
2023/05/11 07:18:00;;;;;;;0.85;0.40;;;;;;;;;;4994418;28;20050;-82
2023/05/11 07:20:26;;;;;;;2.90;0.52;;;;;;;;;;4997589;28;20076;-82
2023/05/11 07:22:55;;;;;;;0.88;0.40;;;;;;;;;;5005120;28;20038;-84
2023/05/11 07:25:21;;;;;;;0.40;0.40;;;;;;;;;;5005553;28;20073;-83
2023/05/11 07:27:46;;;;;;;0.55;0.40;;;;;;;;;;5009715;28;20060;-83
2023/05/11 07:30:12;;;;;;;0.40;0.40;;;;;;;;;;5013201;28;20038;-83
2023/05/11 07:32:37;;;;;;;1.10;0.25;;;;;;;;;;5027686;28;20424;-83
2023/05/11 07:35:04;;;;;;;0.63;0.35;;;;;;;;;;5031076;28;20033;-83
2023/05/11 07:37:29;;;;;;;0.40;0.30;;;;;;;;;;5022557;28;20084;-83
2023/05/11 07:39:55;;;;;;;1.58;0.50;;;;;;;;;;5024863;28;20046;-82
2023/05/11 07:42:20;;;;;;;1.13;0.70;;;;;;;;;;5027201;28;20037;-83
2023/05/11 07:44:46;;;;;;;0.63;0.47;;;;;;;;;;5031139;28;20554;-83
2023/05/11 07:47:12;;;;;;;0.80;0.55;;;;;;;;;;5034208;28;20101;-84
2023/05/11 07:49:37;;;;;;;1.02;0.73;;;;;;;;;;5014327;28;20035;-83
2023/05/11 07:52:03;;;;;;;0.63;0.40;;;;;;;;;;5000121;28;20049;-82
2023/05/11 07:54:28;;;;;;;0.90;0.52;;;;;;;;;;5001917;28;20041;-83
2023/05/11 07:56:54;;;;;;;1.70;0.70;;;;;;;;;;5023106;28;20037;-82
2023/05/11 07:59:19;;;;;;;1.05;0.60;;;;;;;;;;5030277;28;20037;-84
2023/05/11 08:01:45;;;;;;;1.02;0.70;;;;;;;;;;5032625;28;20033;-83
2023/05/11 08:04:10;;;;;;;0.30;0.30;;;;;;;;;;5030913;28;20025;-83
2023/05/11 08:06:36;;;;;;;0.65;0.50;;;;;;;;;;5006997;28;20463;-83
2023/05/11 08:09:01;;;;;;;0.35;0.30;;;;;;;;;;5017602;28;20034;-83
2023/05/11 08:11:27;;;;;;;0.32;0.30;;;;;;;;;;5022878;28;20070;-83
2023/05/11 08:13:52;;;;;;;0.40;0.40;;;;;;;;;;5023860;28;20025;-84
2023/05/11 08:16:18;;;;;;;0.40;0.40;;;;;;;;;;5029761;28;20373;-82
2023/05/11 08:18:43;;;;;;;0.20;0.20;;;;;;;;;;5032691;28;20033;-82
2023/05/11 08:21:09;;;;;;;0.55;0.50;;;;;;;;;;5032101;28;20034;-83
2023/05/11 08:23:34;;;;;;;2.00;0.40;;;;;;;;;;5013875;28;20069;-82
2023/05/11 08:26:00;;;;;;;0.93;0.50;;;;;;;;;;5031765;28;20037;-82
2023/05/11 08:28:25;;;;;;;0.40;0.40;;;;;;;;;;5031740;28;20103;-82
2023/05/11 08:30:57;;;;;;;0.73;0.52;;;;;;;;;;5026522;28;20036;-82
2023/05/11 08:33:23;;;;;;;0.30;0.30;;;;;;;;;;5026506;28;20033;-82
2023/05/11 08:35:49;;;;;;;0.30;0.30;;;;;;;;;;5031543;28;20033;-82
2023/05/11 08:38:15;;;;;;;1.67;0.30;;;;;;;;;;5026593;28;20505;-81
2023/05/11 08:40:46;;;;;;;0.38;0.30;;;;;;;;;;4997308;28;20046;-83
2023/05/11 08:43:13;;;;;;;2.25;0.40;;;;;;;;;;5025578;28;20287;-83
2023/05/11 08:45:46;;;;;;;1.15;0.63;;;;;;;;;;5038000;28;20129;-83
2023/05/11 08:48:13;;;;;;;0.73;0.65;;;;;;;;;;5027964;28;20041;-83
2023/05/11 08:50:39;;;;;;;1.50;0.75;;;;;;;;;;5037006;28;20652;-83
2023/05/11 08:53:05;;;;;;;0.47;0.40;;;;;;;;;;5036312;28;20045;-83
2023/05/11 08:55:32;;;;;;;0.70;0.50;;;;;;;;;;5027017;28;20040;-84
2023/05/11 08:58:02;;;;;;;4.15;1.67;;;;;;;;;;5025026;28;20108;-82
2023/05/11 09:00:29;;;;;;;0.95;0.70;;;;;;;;;;5039706;28;20501;-84
2023/05/11 09:02:56;;;;;;;0.30;0.30;;;;;;;;;;5029833;28;20038;-81
2023/05/11 09:05:22;;;;;;;0.20;0.20;;;;;;;;;;5032965;28;20547;-83
2023/05/11 09:07:51;;;;;;;0.50;0.20;;;;;;;;;;5036246;28;20033;-83
2023/05/11 09:10:17;;;;;;;0.20;0.20;;;;;;;;;;5037933;28;20034;-83
2023/05/11 09:12:42;;;;;;;0.20;0.20;;;;;;;;;;5003930;28;20073;-83
2023/05/11 09:15:08;;;;;;;2.20;0.25;;;;;;;;;;5004460;28;20042;-83
2023/05/11 09:17:34;;;;;;;0.63;0.25;;;;;;;;;;5026345;28;20083;-83
2023/05/11 09:20:04;;;;;;;0.20;0.20;;;;;;;;;;5037783;28;20033;-82
2023/05/11 09:22:31;;;;;;;1.02;0.28;;;;;;;;;;5033945;28;20152;-83
2023/05/11 09:24:58;;;;;;;0.55;0.30;;;;;;;;;;5035619;28;20810;-83
2023/05/11 09:27:24;;;;;;;1.52;0.77;;;;;;;;;;5030980;28;20103;-83
2023/05/11 09:29:54;;;;;;;2.65;0.90;;;;;;;;;;5021107;28;20104;-84
2023/05/11 09:32:19;;;;;;;1.52;0.70;;;;;;;;;;5025566;28;20038;-83
2023/05/11 09:34:45;;;;;;;0.80;0.50;;;;;;;;;;5028039;28;20072;-83
2023/05/11 09:37:16;;;;;;;0.20;0.20;;;;;;;;;;5037295;28;20041;-83
2023/05/11 09:39:42;;;;;;;0.22;0.22;;;;;;;;;;5029531;28;20567;-82
2023/05/11 09:42:19;;;;;;;1.92;0.60;;;;;;;;;;5036649;28;20107;-84
2023/05/11 09:44:46;;;;;;;1.98;0.25;;;;;;;;;;5018278;28;20045;-83
2023/05/11 09:47:13;;;;;;;0.30;0.25;;;;;;;;;;5022517;28;20048;-83
2023/05/11 09:49:42;;;;;;;0.40;0.40;;;;;;;;;;5026353;28;20515;-83
2023/05/11 09:52:09;;;;;;;0.88;0.77;;;;;;;;;;5029425;28;20042;-83
2023/05/11 09:54:43;;;;;;;0.47;0.30;;;;;;;;;;5037265;28;20033;-83
2023/05/11 09:57:25;;;;;;;0.65;0.20;;;;;;;;;;5032551;28;20051;-83
2023/05/11 09:59:52;;;;;;;0.20;0.20;;;;;;;;;;5031264;28;20433;-84
2023/05/11 10:02:19;;;;;;;0.88;0.20;;;;;;;;;;4997884;28;20500;-83
2023/05/11 10:04:46;;;;;;;0.45;0.30;;;;;;;;;;5028657;28;20442;-83
2023/05/11 10:07:34;;;;;;;0.73;0.10;;;;;;;;;;5006038;28;20039;-83
2023/05/11 10:10:05;;;;;;;0.25;0.20;;;;;;;;;;5028624;28;20041;-83
2023/05/11 10:12:32;;;;;;;1.23;0.30;;;;;;;;;;5027790;28;20040;-83
2023/05/11 10:15:04;;;;;;;1.65;0.30;;;;;;;;;;5035874;28;20415;-83
2023/05/11 10:17:30;;;;;;;0.35;0.30;;;;;;;;;;5015517;28;20050;-84
2023/05/11 10:19:57;;;;;;;0.25;0.25;;;;;;;;;;5002446;28;20072;-84
2023/05/11 10:22:27;;;;;;;0.55;0.30;;;;;;;;;;5005763;28;20029;-85
2023/05/11 10:24:55;;;;;;;0.38;0.30;;;;;;;;;;5026962;28;20069;-84
2023/05/11 10:27:21;;;;;;;0.20;0.20;;;;;;;;;;5031881;28;20041;-84
2023/05/11 10:29:47;;;;;;;0.30;0.20;;;;;;;;;;5034268;28;20044;-85
2023/05/11 10:32:15;;;;;;;0.13;0.13;;;;;;;;;;5035679;28;20041;-85
2023/05/11 10:34:41;;;;;;;0.20;0.20;;;;;;;;;;5003823;28;20042;-85
2023/05/11 10:37:07;;;;;;;0.25;0.15;;;;;;;;;;5020944;28;20389;-84
2023/05/11 10:39:36;;;;;;;0.20;0.10;;;;;;;;;;5023846;28;20034;-85
2023/05/11 10:42:20;;;;;;;0.15;0.15;;;;;;;;;;5030096;28;20083;-84
2023/05/11 10:45:01;;;;;;;0.25;0.20;;;;;;;;;;5031286;28;20052;-84
2023/05/11 10:47:45;;;;;;;0.20;0.20;;;;;;;;;;5036425;28;20567;-84
2023/05/11 10:50:48;;;;;;;0.43;0.20;;;;;;;;;;5015486;28;20115;-84
2023/05/11 10:53:13;;;;;;;0.50;0.35;;;;;;;;;;5021189;28;20042;-85
2023/05/11 10:56:00;;;;;;;0.55;0.30;;;;;;;;;;5035561;28;20039;-84
2023/05/11 10:58:41;;;;;;;0.28;0.28;;;;;;;;;;5029211;28;20112;-85
2023/05/11 11:01:33;;;;;;;0.55;0.30;;;;;;;;;;5036534;28;20063;-85
2023/05/11 11:04:01;;;;;;;0.20;0.10;;;;;;;;;;5038282;28;20109;-85
2023/05/11 11:06:28;;;;;;;0.20;0.20;;;;;;;;;;5023154;28;20057;-84
2023/05/11 11:08:59;;;;;;;0.30;0.30;;;;;;;;;;5020274;28;20141;-85
2023/05/11 11:11:45;;;;;;;0.35;0.35;;;;;;;;;;5028420;28;20040;-85
2023/05/11 11:14:15;;;;;;;0.25;0.25;;;;;;;;;;5030636;28;20402;-84
2023/05/11 11:17:13;;;;;;;0.40;0.40;;;;;;;;;;5033850;28;20068;-84
2023/05/11 11:19:38;;;;;;;1.05;0.30;;;;;;;;;;5033457;28;20041;-85
2023/05/11 11:22:04;;;;;;;1.15;0.45;;;;;;;;;;5033357;28;20041;-85
2023/05/11 11:24:36;;;;;;;0.50;0.50;;;;;;;;;;5020527;28;20049;-84
2023/05/11 11:27:02;;;;;;;0.63;0.40;;;;;;;;;;5027703;28;20041;-83
2023/05/11 11:29:29;;;;;;;1.23;0.38;;;;;;;;;;5032189;28;20033;-84
2023/05/11 11:31:54;;;;;;;0.57;0.30;;;;;;;;;;5034432;28;20030;-84
2023/05/11 11:34:26;;;;;;;0.95;0.50;;;;;;;;;;5033354;28;20034;-84
2023/05/11 11:36:54;;;;;;;0.65;0.40;;;;;;;;;;5030801;28;20124;-84
2023/05/11 11:39:48;;;;;;;1.40;0.40;;;;;;;;;;5028093;28;20048;-84
2023/05/11 11:42:41;;;;;;;;;;;;;;;;;;5020797;28;20050;-84
2023/05/11 11:45:27;;;;;;;0.60;0.45;;;;;;;;;;5022370;28;19920;-84
2023/05/11 11:48:05;;;;;;;0.28;0.28;;;;;;;;;;5010689;28;20524;-84
2023/05/11 11:50:31;;;;;;;0.47;0.38;;;;;;;;;;5031866;28;20079;-84
2023/05/11 11:52:57;;;;;;;0.40;0.40;;;;;;;;;;5034864;28;20029;-84
2023/05/11 11:55:49;;;;;;;0.30;0.30;;;;;;;;;;5024611;28;20050;-84
2023/05/11 11:58:43;;;;;;;0.65;0.32;;;;;;;;;;5018252;28;20026;-84
2023/05/11 12:01:19;;;;;;;0.60;0.32;;;;;;;;;;5026329;28;20041;-84
2023/05/11 12:03:53;;;;;;;0.22;0.20;;;;;;;;;;5029291;28;20053;-84
2023/05/11 12:06:21;;;;;;;0.40;0.30;;;;;;;;;;5031629;28;20037;-84
2023/05/11 12:08:47;;;;;;;0.68;0.50;;;;;;;;;;5030922;28;20060;-84
2023/05/11 12:11:16;;;;;;;0.40;0.40;;;;;;;;;;5031738;28;20046;-84
2023/05/11 12:13:42;;;;;;;1.70;0.32;;;;;;;;;;5002349;28;20038;-84
2023/05/11 12:16:08;;;;;;;0.30;0.30;;;;;;;;;;5004826;28;20054;-84
2023/05/11 12:18:34;;;;;;;0.22;0.22;;;;;;;;;;5006594;28;20041;-84
2023/05/11 12:20:59;;;;;;;0.30;0.30;;;;;;;;;;5029784;28;20033;-84
2023/05/11 12:23:26;;;;;;;0.60;0.30;;;;;;;;;;5033284;28;20064;-84
2023/05/11 12:26:02;;;;;;;0.30;0.30;;;;;;;;;;5034367;28;20044;-84
2023/05/11 12:28:28;;;;;;;0.30;0.30;;;;;;;;;;5026752;28;20038;-84
2023/05/11 12:30:54;;;;;;;0.30;0.20;;;;;;;;;;5022035;28;20037;-84
2023/05/11 12:33:20;;;;;;;0.82;0.40;;;;;;;;;;5024511;28;20129;-84
2023/05/11 12:35:54;;;;;;;0.55;0.40;;;;;;;;;;5028070;28;20088;-84
2023/05/11 12:38:20;;;;;;;0.20;0.20;;;;;;;;;;5009584;28;20124;-84
2023/05/11 12:40:50;;;;;;;0.43;0.20;;;;;;;;;;5013714;28;20038;-84
2023/05/11 12:43:20;;;;;;;0.30;0.30;;;;;;;;;;5016347;28;20030;-84
2023/05/11 12:45:46;;;;;;;0.38;0.30;;;;;;;;;;5017487;28;20054;-84
2023/05/11 12:48:13;;;;;;;0.40;0.30;;;;;;;;;;5034523;28;20076;-84
2023/05/11 12:50:40;;;;;;;3.42;0.50;;;;;;;;;;5024511;28;20079;-84
2023/05/11 12:53:17;;;;;;;0.57;0.40;;;;;;;;;;5030101;28;20117;-84
2023/05/11 12:55:44;;;;;;;0.40;0.40;;;;;;;;;;5032481;28;20079;-84
2023/05/11 12:58:14;;;;;;;1.02;0.38;;;;;;;;;;5033419;28;20041;-84
2023/05/11 13:00:50;;;;;;;0.68;0.40;;;;;;;;;;5030061;28;20042;-84
2023/05/11 13:03:23;;;;;;;0.60;0.43;;;;;;;;;;5000650;28;20022;-84
2023/05/11 13:05:50;;;;;;;0.30;0.30;;;;;;;;;;5024197;28;20037;-84
2023/05/11 13:08:18;;;;;;;0.40;0.40;;;;;;;;;;5027216;28;20041;-84
2023/05/11 13:10:45;;;;;;;0.55;0.47;;;;;;;;;;5030987;28;20033;-84
2023/05/11 13:13:10;;;;;;;0.65;0.50;;;;;;;;;;5035003;28;20044;-84
2023/05/11 13:15:50;;;;;;;1.50;0.40;;;;;;;;;;5036432;28;20069;-84
2023/05/11 13:18:16;;;;;;;0.50;0.40;;;;;;;;;;5013650;28;20035;-84
2023/05/11 13:20:42;;;;;;;1.33;0.40;;;;;;;;;;5016046;28;20107;-84
2023/05/11 13:23:12;;;;;;;1.70;0.50;;;;;;;;;;5023114;28;20511;-84
2023/05/11 13:25:47;;;;;;;0.70;0.50;;;;;;;;;;5028404;28;20511;-85
2023/05/11 13:28:14;;;;;;;0.73;0.50;;;;;;;;;;5030221;28;20483;-84
2023/05/11 13:30:40;;;;;;;1.77;0.63;;;;;;;;;;5035596;28;20039;-85
2023/05/11 13:33:05;;;;;;;0.52;0.40;;;;;;;;;;5035149;28;20029;-82
2023/05/11 13:35:31;;;;;;;3.63;0.50;;;;;;;;;;5013263;28;20771;-86
2023/05/11 13:37:57;;;;;;;0.60;0.60;;;;;;;;;;5033795;28;20040;-87
2023/05/11 13:40:22;;;;;;;0.45;0.45;;;;;;;;;;5021689;28;20049;-87
2023/05/11 13:42:48;;;;;;;1.02;0.60;;;;;;;;;;5022335;28;20033;-85
2023/05/11 13:45:14;;;;;;;0.73;0.50;;;;;;;;;;5028301;28;20025;-86
2023/05/11 13:47:39;;;;;;;1.23;0.50;;;;;;;;;;5030065;28;20511;-86
2023/05/11 13:50:05;;;;;;;0.50;0.50;;;;;;;;;;5008198;28;20056;-86
2023/05/11 13:52:31;;;;;;;1.85;0.52;;;;;;;;;;5020005;28;20036;-86
2023/05/11 13:54:57;;;;;;;1.00;0.45;;;;;;;;;;5023025;28;20471;-86
2023/05/11 13:57:22;;;;;;;1.67;0.65;;;;;;;;;;5025456;28;20068;-85
2023/05/11 13:59:49;;;;;;;0.60;0.60;;;;;;;;;;5032309;28;20029;-87
2023/05/11 14:02:14;;;;;;;0.55;0.50;;;;;;;;;;5006119;28;20037;-86
2023/05/11 14:04:40;;;;;;;0.57;0.50;;;;;;;;;;5016348;28;20030;-85
2023/05/11 14:07:06;;;;;;;1.02;0.65;;;;;;;;;;5023186;28;20079;-87
2023/05/11 14:09:31;;;;;;;0.95;0.70;;;;;;;;;;5027534;28;20033;-87
2023/05/11 14:11:57;;;;;;;0.85;0.70;;;;;;;;;;5031108;28;20033;-86
2023/05/11 14:14:22;;;;;;;0.43;0.40;;;;;;;;;;5012314;28;20069;-85
2023/05/11 14:16:48;;;;;;;0.80;0.60;;;;;;;;;;4997488;28;20034;-85
2023/05/11 14:19:14;;;;;;;0.47;0.40;;;;;;;;;;5001340;28;20038;-86
2023/05/11 14:21:39;;;;;;;2.25;0.50;;;;;;;;;;5022902;28;20034;-86
2023/05/11 14:24:06;;;;;;;0.65;0.60;;;;;;;;;;5028538;28;20034;-86
2023/05/11 14:26:31;;;;;;;1.40;0.60;;;;;;;;;;5016860;28;20030;-87
2023/05/11 14:28:57;;;;;;;0.30;0.30;;;;;;;;;;4999277;28;20041;-87
2023/05/11 14:31:22;;;;;;;0.95;0.30;;;;;;;;;;5001478;28;20049;-87
2023/05/11 14:33:48;;;;;;;0.20;0.20;;;;;;;;;;5006686;28;20037;-87
2023/05/11 14:36:13;;;;;;;0.40;0.40;;;;;;;;;;5014343;28;20404;-86
2023/05/11 14:38:39;;;;;;;0.30;0.30;;;;;;;;;;5017245;28;20049;-87
2023/05/11 14:41:04;;;;;;;0.40;0.30;;;;;;;;;;5022453;28;20069;-87
2023/05/11 14:43:30;;;;;;;0.30;0.30;;;;;;;;;;5024966;28;20518;-87
2023/05/11 14:45:56;;;;;;;0.40;0.40;;;;;;;;;;5027043;28;20036;-87
2023/05/11 14:48:21;;;;;;;0.35;0.30;;;;;;;;;;5029916;28;20042;-89
2023/05/11 14:50:47;;;;;;;0.30;0.30;;;;;;;;;;5034495;28;20033;-87